Time;durP1;ratioP1;P1;durP2;ratioP2;P2;SDS_P1;SDS_P2;PMS_P1;PMS_P2;Temp;Humidity;BMP_temperature;BMP_pressure;BME280_temperature;BME280_humidity;BME280_pressure;Samples;Min_cycle;Max_cycle;Signal;HPM_P1;HPM_P2
2022/03/23 00:02:11;;;;;;;21.60;15.73;;;13.00;51.10;;;;;;5110573;27;20035;-63
2022/03/23 00:04:36;;;;;;;24.27;15.98;;;12.90;51.00;;;;;;5119880;27;20070;-63
2022/03/23 00:07:02;;;;;;;22.13;14.50;;;12.80;51.10;;;;;;5111138;28;20029;-63
2022/03/23 00:09:28;;;;;;;22.35;14.95;;;12.70;51.20;;;;;;5111305;28;20110;-63
2022/03/23 00:11:54;;;;;;;21.02;15.27;;;12.70;51.30;;;;;;5110109;28;20045;-63
2022/03/23 00:14:19;;;;;;;23.13;15.10;;;12.70;51.50;;;;;;5092693;28;20036;-62
2022/03/23 00:16:45;;;;;;;22.42;15.05;;;12.60;51.60;;;;;;5110920;28;20232;-63
2022/03/23 00:19:11;;;;;;;19.88;13.93;;;12.60;51.60;;;;;;5110674;28;20111;-62
2022/03/23 00:21:38;;;;;;;23.83;14.70;;;12.50;51.60;;;;;;5110159;28;20092;-62
2022/03/23 00:24:05;;;;;;;23.30;14.48;;;12.50;51.90;;;;;;5092028;28;20024;-63
2022/03/23 00:26:31;;;;;;;24.98;14.90;;;12.40;52.10;;;;;;5091687;28;20130;-60
2022/03/23 00:28:57;;;;;;;22.45;15.05;;;12.40;52.20;;;;;;5110450;28;20365;-62
2022/03/23 00:31:23;;;;;;;25.50;14.88;;;12.30;52.20;;;;;;5114652;27;20126;-63
2022/03/23 00:33:50;;;;;;;21.55;14.65;;;12.30;52.10;;;;;;5121244;27;20099;-62
2022/03/23 00:36:16;;;;;;;24.60;15.32;;;12.20;52.10;;;;;;5097667;28;20065;-62
2022/03/23 00:38:42;;;;;;;23.08;15.30;;;12.20;52.10;;;;;;5104964;28;20060;-62
2022/03/23 01:02:14;;;;;;;22.90;14.55;;;11.70;52.80;;;;;;5103701;27;20578;-62
2022/03/23 01:04:49;;;;;;;24.10;15.80;;;11.60;52.90;;;;;;5120619;27;20440;-63
2022/03/23 01:07:15;;;;;;;23.33;15.90;;;11.60;53.20;;;;;;5109234;27;20114;-63
2022/03/23 01:09:40;;;;;;;24.38;15.25;;;11.60;53.20;;;;;;5074086;28;20106;-63
2022/03/23 01:12:07;;;;;;;25.42;15.82;;;11.50;53.10;;;;;;5120081;27;20052;-59
2022/03/23 01:14:32;;;;;;;29.13;15.02;;;11.50;53.20;;;;;;5113990;27;20449;-63
2022/03/23 01:16:58;;;;;;;23.08;16.15;;;11.50;53.30;;;;;;5109358;28;20111;-62
2022/03/23 01:19:27;;;;;;;21.80;15.82;;;11.50;53.40;;;;;;5110108;28;20505;-62
2022/03/23 01:21:54;;;;;;;23.75;15.75;;;11.40;53.40;;;;;;5109144;28;20038;-63
2022/03/23 01:24:20;;;;;;;21.38;15.38;;;11.40;53.50;;;;;;5109426;28;20431;-58
2022/03/23 01:26:45;;;;;;;24.85;16.45;;;11.40;53.40;;;;;;5096065;27;20418;-59
2022/03/23 01:29:11;;;;;;;22.38;15.45;;;11.30;53.50;;;;;;5121666;27;20031;-59
2022/03/23 01:31:37;;;;;;;23.13;16.25;;;11.30;53.60;;;;;;5091289;28;20054;-59
2022/03/23 01:34:03;;;;;;;23.33;15.35;;;11.30;53.70;;;;;;5109316;28;20027;-59
2022/03/23 01:36:30;;;;;;;24.10;15.82;;;11.20;53.70;;;;;;5074482;28;20031;-59
2022/03/23 01:38:57;;;;;;;20.52;15.13;;;11.20;53.60;;;;;;5109116;28;20051;-59
2022/03/23 01:41:23;;;;;;;24.88;16.35;;;11.10;53.60;;;;;;5091473;28;20482;-58
2022/03/23 01:43:50;;;;;;;23.70;15.32;;;11.10;53.60;;;;;;5109462;28;20042;-62
2022/03/23 01:46:20;;;;;;;26.20;15.23;;;11.10;53.70;;;;;;5090358;28;20054;-62
2022/03/23 01:48:47;;;;;;;28.02;15.95;;;11.00;53.90;;;;;;5109107;28;20059;-59
2022/03/23 01:51:13;;;;;;;22.90;15.50;;;11.00;54.50;;;;;;5109121;28;20082;-59
2022/03/23 01:53:40;;;;;;;22.27;15.30;;;11.00;53.70;;;;;;5119138;28;20366;-59
2022/03/23 01:56:09;;;;;;;21.52;15.20;;;11.00;53.90;;;;;;5129700;28;20023;-59
2022/03/23 01:58:36;;;;;;;21.85;14.85;;;10.90;54.00;;;;;;5118545;28;20523;-60
2022/03/23 02:01:02;;;;;;;21.77;15.40;;;10.90;53.70;;;;;;5108807;28;20032;-60
2022/03/23 02:03:28;;;;;;;20.50;14.48;;;10.80;53.60;;;;;;5108283;28;20199;-63
2022/03/23 02:05:53;;;;;;;22.58;15.38;;;10.80;53.60;;;;;;5109110;28;20027;-59
2022/03/23 02:08:19;;;;;;;22.95;15.35;;;10.80;53.90;;;;;;5108382;28;20028;-57
2022/03/23 02:10:45;;;;;;;20.10;15.02;;;10.80;54.00;;;;;;5108930;28;20092;-59
2022/03/23 02:13:13;;;;;;;23.23;14.98;;;10.80;54.10;;;;;;5108885;28;20020;-62
2022/03/23 02:15:40;;;;;;;20.38;15.27;;;10.70;54.20;;;;;;5109686;28;20115;-58
2022/03/23 02:18:06;;;;;;;21.38;15.15;;;10.70;54.10;;;;;;5108395;28;20510;-58
2022/03/23 02:20:32;;;;;;;18.77;14.43;;;10.70;54.10;;;;;;5108534;28;20490;-58
2022/03/23 02:22:58;;;;;;;21.15;15.00;;;10.70;53.90;;;;;;5108603;28;20032;-58
2022/03/23 02:25:27;;;;;;;20.50;16.05;;;10.70;54.10;;;;;;5108870;28;20035;-58
2022/03/23 02:27:54;;;;;;;19.40;14.80;;;10.60;54.20;;;;;;5099741;28;20032;-58
2022/03/23 02:30:21;;;;;;;23.20;15.43;;;10.60;54.40;;;;;;5104194;28;20466;-63
2022/03/23 02:32:48;;;;;;;21.58;15.30;;;10.50;54.30;;;;;;5107173;28;20028;-62
2022/03/23 02:35:15;;;;;;;24.92;15.68;;;10.50;54.30;;;;;;5108365;28;20036;-59
2022/03/23 02:37:41;;;;;;;21.77;15.65;;;10.50;54.10;;;;;;5108523;28;20024;-63
2022/03/23 02:40:09;;;;;;;21.13;15.43;;;10.40;54.00;;;;;;5108178;28;20027;-63
2022/03/23 02:42:38;;;;;;;24.15;15.30;;;10.40;54.10;;;;;;5108547;28;20032;-63
2022/03/23 02:45:10;;;;;;;21.42;14.55;;;10.40;54.20;;;;;;5108194;28;20086;-63
2022/03/23 02:47:36;;;;;;;22.08;14.05;;;10.30;54.10;;;;;;5108667;28;20027;-63
2022/03/23 02:50:02;;;;;;;21.55;14.70;;;10.30;54.10;;;;;;5108359;28;20027;-59
2022/03/23 02:52:28;;;;;;;22.33;16.55;;;10.30;54.20;;;;;;5121899;28;20371;-63
2022/03/23 03:03:44;;;;;;;21.30;15.63;;;10.10;54.20;;;;;;5111869;28;20124;-59
2022/03/23 03:06:10;;;;;;;21.05;14.85;;;10.10;54.30;;;;;;5093321;28;20035;-62
2022/03/23 03:08:48;;;;;;;21.35;15.65;;;10.00;54.60;;;;;;5111574;28;20122;-63
2022/03/23 03:11:16;;;;;;;23.52;15.43;;;10.00;54.50;;;;;;5077750;28;20031;-62
2022/03/23 03:13:42;;;;;;;25.23;15.05;;;9.90;54.70;;;;;;5112420;28;20070;-59
2022/03/23 03:16:08;;;;;;;20.27;14.80;;;9.90;54.70;;;;;;5111687;28;20056;-64
2022/03/23 03:18:34;;;;;;;23.20;15.65;;;9.90;54.90;;;;;;5111673;28;20072;-59
2022/03/23 03:21:04;;;;;;;20.50;15.68;;;9.90;55.00;;;;;;5111456;28;20034;-63
2022/03/23 03:23:30;;;;;;;20.90;15.77;;;9.80;54.70;;;;;;5111667;28;20095;-59
2022/03/23 03:25:56;;;;;;;22.10;16.50;;;9.80;54.70;;;;;;5111461;28;20110;-63
2022/03/23 03:28:23;;;;;;;22.63;15.23;;;9.80;54.90;;;;;;5111801;28;20023;-63
2022/03/23 03:30:49;;;;;;;24.95;16.25;;;9.80;55.60;;;;;;5110975;28;20429;-63
2022/03/23 03:33:14;;;;;;;22.77;14.80;;;9.70;54.80;;;;;;5093049;28;20032;-63
2022/03/23 03:35:40;;;;;;;25.13;16.00;;;9.70;55.00;;;;;;5115886;27;20015;-63
2022/03/23 03:38:07;;;;;;;20.10;15.38;;;9.70;55.10;;;;;;5122941;27;20051;-63
2022/03/23 03:40:33;;;;;;;21.98;14.13;;;9.60;55.10;;;;;;5110826;28;20368;-59
2022/03/23 03:42:58;;;;;;;21.40;16.33;;;9.60;55.10;;;;;;5111734;28;20084;-61
2022/03/23 03:45:24;;;;;;;22.38;15.85;;;9.60;55.10;;;;;;5104108;28;20110;-64
2022/03/23 03:47:50;;;;;;;22.23;14.98;;;9.50;55.00;;;;;;5102544;28;20032;-64
2022/03/23 03:50:15;;;;;;;22.58;16.30;;;9.50;55.00;;;;;;5103174;28;20021;-61
2022/03/23 03:52:41;;;;;;;21.15;15.55;;;9.50;54.90;;;;;;5111060;28;20537;-58
2022/03/23 03:55:07;;;;;;;24.00;15.75;;;9.50;55.20;;;;;;5110873;28;20398;-59
2022/03/23 03:57:33;;;;;;;23.08;15.73;;;9.40;55.40;;;;;;5110983;28;20031;-59
2022/03/23 03:59:59;;;;;;;21.27;16.42;;;9.40;55.40;;;;;;5110657;28;20031;-59
2022/03/23 04:02:24;;;;;;;21.58;15.73;;;9.40;55.40;;;;;;5110749;28;20100;-59
2022/03/23 04:04:50;;;;;;;24.48;15.30;;;9.30;55.50;;;;;;5111147;28;20123;-59
2022/03/23 04:07:16;;;;;;;25.35;16.25;;;9.30;55.30;;;;;;5110779;28;20022;-59
2022/03/23 04:09:41;;;;;;;23.05;15.63;;;9.30;55.50;;;;;;5118135;27;20118;-62
2022/03/23 04:12:08;;;;;;;22.77;16.30;;;9.30;55.50;;;;;;5112678;27;20448;-62
2022/03/23 04:14:34;;;;;;;25.67;15.90;;;9.20;55.50;;;;;;5117582;27;20660;-63
2022/03/23 04:17:00;;;;;;;22.80;16.23;;;9.20;55.50;;;;;;5094145;28;20028;-62
2022/03/23 04:19:26;;;;;;;23.88;16.33;;;9.20;55.60;;;;;;5106335;28;20036;-59
2022/03/23 04:21:51;;;;;;;21.90;15.80;;;9.10;55.70;;;;;;5110233;28;20394;-62
2022/03/23 04:24:17;;;;;;;24.90;15.77;;;9.10;55.60;;;;;;5110276;28;20038;-62
2022/03/23 04:26:45;;;;;;;23.20;16.45;;;9.10;55.70;;;;;;5092379;28;20375;-62
2022/03/23 04:29:11;;;;;;;22.52;16.88;;;9.10;55.90;;;;;;5110396;28;20098;-62
2022/03/23 04:31:37;;;;;;;21.95;15.57;;;9.10;56.10;;;;;;5109935;28;20027;-62
2022/03/23 04:34:03;;;;;;;23.42;16.70;;;9.00;56.00;;;;;;5091036;28;20062;-62
2022/03/23 04:36:28;;;;;;;22.88;17.20;;;9.00;56.00;;;;;;5110623;28;20036;-59
2022/03/23 04:38:54;;;;;;;24.92;16.95;;;9.00;56.20;;;;;;5091520;28;20474;-63
2022/03/23 04:41:20;;;;;;;22.80;16.30;;;8.90;56.20;;;;;;5092121;28;20043;-59
2022/03/23 04:43:45;;;;;;;22.67;16.23;;;8.90;56.30;;;;;;5110397;28;20487;-63
2022/03/23 04:46:13;;;;;;;23.73;17.23;;;8.90;56.40;;;;;;5110337;28;20031;-63
2022/03/23 04:48:39;;;;;;;22.75;16.50;;;8.90;56.40;;;;;;5092179;28;20120;-63
2022/03/23 04:51:05;;;;;;;24.98;16.42;;;8.80;56.50;;;;;;5109288;28;20057;-59
2022/03/23 04:53:30;;;;;;;23.15;16.83;;;8.80;56.60;;;;;;5109713;28;20032;-59
2022/03/23 04:55:56;;;;;;;20.83;15.65;;;8.80;56.60;;;;;;5110231;28;20110;-63
2022/03/23 04:58:22;;;;;;;24.63;16.08;;;8.80;56.70;;;;;;5110365;28;20032;-59
2022/03/23 05:00:48;;;;;;;22.27;16.17;;;8.70;56.80;;;;;;5109516;28;20028;-63
2022/03/23 05:03:14;;;;;;;24.58;17.25;;;8.70;56.70;;;;;;5109245;28;20048;-59
2022/03/23 05:05:40;;;;;;;23.92;15.98;;;8.70;56.70;;;;;;5109469;28;21930;-60
2022/03/23 05:08:05;;;;;;;24.27;16.75;;;8.70;56.60;;;;;;5109190;28;20690;-62
2022/03/23 05:10:31;;;;;;;26.20;16.70;;;8.70;56.80;;;;;;5128569;27;20512;-63
2022/03/23 05:12:57;;;;;;;27.70;17.58;;;8.70;57.00;;;;;;5090943;28;20492;-63
2022/03/23 05:15:23;;;;;;;20.10;15.52;;;8.60;57.10;;;;;;5091785;28;20032;-63
2022/03/23 05:17:49;;;;;;;24.98;17.92;;;8.60;57.00;;;;;;5109504;28;20035;-59
2022/03/23 05:20:17;;;;;;;23.80;16.70;;;8.60;57.10;;;;;;5090721;28;20026;-59
2022/03/23 05:22:43;;;;;;;21.85;16.42;;;8.60;57.20;;;;;;5108978;28;20128;-60
2022/03/23 05:25:10;;;;;;;25.40;17.58;;;8.60;57.40;;;;;;5109483;28;20494;-59
2022/03/23 05:27:38;;;;;;;26.77;18.33;;;8.60;57.60;;;;;;5107675;28;20031;-60
2022/03/23 05:30:07;;;;;;;25.95;17.98;;;8.50;57.60;;;;;;5093350;28;20107;-59
2022/03/23 05:32:34;;;;;;;27.73;18.45;;;8.50;57.70;;;;;;5108218;28;20050;-58
2022/03/23 05:34:59;;;;;;;23.83;16.65;;;8.50;57.80;;;;;;5109413;28;20038;-60
2022/03/23 05:37:25;;;;;;;26.30;18.48;;;8.50;57.90;;;;;;5108973;28;20028;-59
2022/03/23 05:39:51;;;;;;;25.40;17.67;;;8.40;57.90;;;;;;5108820;28;20045;-60
2022/03/23 05:42:17;;;;;;;31.58;19.25;;;8.40;57.80;;;;;;5109193;28;20516;-59
2022/03/23 05:44:43;;;;;;;24.77;17.35;;;8.40;58.00;;;;;;5109014;28;20034;-59
2022/03/23 05:47:09;;;;;;;26.35;18.92;;;8.40;58.10;;;;;;5109683;28;20565;-62
2022/03/23 05:49:34;;;;;;;26.90;18.45;;;8.30;58.10;;;;;;5103352;28;20051;-59
2022/03/23 05:52:00;;;;;;;26.27;18.50;;;8.30;58.10;;;;;;5125301;27;20085;-62
2022/03/23 05:54:26;;;;;;;27.15;19.10;;;8.30;58.30;;;;;;5109176;28;20023;-63
2022/03/23 05:56:52;;;;;;;28.42;18.08;;;8.30;58.40;;;;;;5109416;28;20517;-59
2022/03/23 05:59:19;;;;;;;29.80;18.70;;;8.30;58.40;;;;;;5109167;28;20027;-59
2022/03/23 06:01:45;;;;;;;28.25;17.77;;;8.20;58.50;;;;;;5109013;28;20640;-59
2022/03/23 06:04:12;;;;;;;27.58;18.92;;;8.20;58.60;;;;;;5105454;28;20084;-59
2022/03/23 06:06:38;;;;;;;29.15;19.95;;;8.20;58.70;;;;;;5107985;28;20089;-62
2022/03/23 06:09:04;;;;;;;30.20;18.90;;;8.20;59.00;;;;;;5089937;28;20040;-62
2022/03/23 06:11:32;;;;;;;28.13;19.33;;;8.20;59.20;;;;;;5108556;28;20036;-62
2022/03/23 06:13:58;;;;;;;29.58;19.35;;;8.20;59.50;;;;;;5090902;28;20043;-63
2022/03/23 06:16:24;;;;;;;25.88;18.58;;;8.20;59.50;;;;;;5109534;28;20435;-59
2022/03/23 06:18:49;;;;;;;29.20;18.60;;;8.20;59.50;;;;;;5109819;28;20024;-57
2022/03/23 06:21:15;;;;;;;32.03;19.40;;;8.20;59.60;;;;;;5108406;28;20032;-59
2022/03/23 06:23:41;;;;;;;24.98;17.58;;;8.20;59.50;;;;;;5108563;28;20489;-62
2022/03/23 06:26:07;;;;;;;26.55;17.90;;;8.20;59.60;;;;;;5108728;28;20035;-63
2022/03/23 06:28:33;;;;;;;26.13;17.27;;;8.30;59.90;;;;;;5073618;28;20490;-59
2022/03/23 06:30:59;;;;;;;30.73;17.85;;;8.30;60.00;;;;;;5108118;28;20405;-59
2022/03/23 06:33:25;;;;;;;27.27;17.50;;;8.30;60.00;;;;;;5109478;28;20031;-63
2022/03/23 06:35:51;;;;;;;24.80;16.65;;;8.30;60.10;;;;;;5112905;28;20110;-62
2022/03/23 06:38:17;;;;;;;24.33;17.98;;;8.30;60.30;;;;;;5112646;28;20077;-62
2022/03/23 06:40:43;;;;;;;25.10;16.85;;;8.40;60.30;;;;;;5112029;28;20109;-62
2022/03/23 06:43:10;;;;;;;23.52;15.95;;;8.50;60.40;;;;;;5113005;28;20076;-58
2022/03/23 06:45:35;;;;;;;26.20;18.00;;;8.50;60.10;;;;;;5112578;28;20063;-59
2022/03/23 06:48:02;;;;;;;24.42;17.30;;;8.60;60.20;;;;;;5112901;28;20104;-59
2022/03/23 06:50:27;;;;;;;23.75;17.23;;;8.60;59.70;;;;;;5093743;28;20322;-59
2022/03/23 06:52:53;;;;;;;21.08;16.02;;;8.70;59.90;;;;;;5094646;28;20030;-59
2022/03/23 06:55:19;;;;;;;23.42;16.63;;;8.80;59.40;;;;;;5111866;28;20028;-59
2022/03/23 06:57:45;;;;;;;22.92;16.02;;;8.90;59.10;;;;;;5107749;28;20028;-59
2022/03/23 07:00:14;;;;;;;27.85;17.67;;;8.90;58.60;;;;;;5102666;28;20031;-63
2022/03/23 07:02:44;;;;;;;24.55;16.45;;;9.00;58.20;;;;;;5112683;28;20047;-59
2022/03/23 07:05:12;;;;;;;24.17;16.65;;;9.10;58.00;;;;;;5108391;28;20047;-59
2022/03/23 07:07:38;;;;;;;20.17;14.95;;;9.20;57.60;;;;;;5108898;28;20027;-63
2022/03/23 07:10:04;;;;;;;23.38;17.15;;;9.30;57.40;;;;;;5104235;28;20072;-59
2022/03/23 07:12:31;;;;;;;27.00;16.98;;;9.40;57.20;;;;;;5086486;28;20036;-63
2022/03/23 07:14:57;;;;;;;24.42;15.70;;;9.40;56.90;;;;;;5105032;28;20231;-63
2022/03/23 07:17:23;;;;;;;25.10;17.45;;;9.50;56.70;;;;;;5089003;28;20379;-63
2022/03/23 07:19:50;;;;;;;25.55;16.92;;;9.60;56.60;;;;;;5112175;28;20027;-63
2022/03/23 07:22:16;;;;;;;25.13;16.40;;;9.60;56.60;;;;;;5111418;28;20429;-62
2022/03/23 07:24:43;;;;;;;25.40;17.85;;;9.70;56.40;;;;;;5111607;28;20028;-60
2022/03/23 07:27:09;;;;;;;24.48;16.77;;;9.80;56.30;;;;;;5093395;28;20089;-61
2022/03/23 07:29:35;;;;;;;22.73;17.23;;;9.80;56.20;;;;;;5112219;28;20027;-62
2022/03/23 07:32:01;;;;;;;24.65;16.92;;;9.90;56.10;;;;;;5110300;28;20059;-61
2022/03/23 07:34:27;;;;;;;26.83;18.17;;;9.90;56.00;;;;;;5111937;28;20039;-62
2022/03/23 07:36:52;;;;;;;26.58;16.60;;;10.00;55.90;;;;;;5111910;28;20028;-62
2022/03/23 07:39:23;;;;;;;26.58;16.67;;;10.00;55.70;;;;;;5120965;27;20023;-59
2022/03/23 07:41:55;;;;;;;27.05;17.80;;;10.10;55.60;;;;;;5125590;27;20439;-58
2022/03/23 07:44:21;;;;;;;25.05;17.08;;;10.10;55.30;;;;;;5111132;28;20046;-59
2022/03/23 07:46:47;;;;;;;26.08;17.45;;;10.20;55.20;;;;;;5111403;28;20023;-58
2022/03/23 07:49:14;;;;;;;26.23;18.48;;;10.20;55.00;;;;;;5111262;28;20026;-62
2022/03/23 07:51:40;;;;;;;28.63;17.90;;;10.30;54.70;;;;;;5108633;28;20049;-60
2022/03/23 07:54:06;;;;;;;24.90;18.33;;;10.30;54.50;;;;;;5109292;28;20478;-62
2022/03/23 07:56:32;;;;;;;23.92;17.52;;;10.40;54.60;;;;;;5110506;28;20075;-61
2022/03/23 07:58:58;;;;;;;24.20;17.60;;;10.50;54.30;;;;;;5111239;28;20106;-60
2022/03/23 08:01:24;;;;;;;24.95;17.80;;;10.50;54.10;;;;;;5105732;28;20449;-60
2022/03/23 08:03:50;;;;;;;25.38;16.70;;;10.60;54.10;;;;;;5075337;28;20070;-60
2022/03/23 08:06:16;;;;;;;30.00;18.20;;;10.60;53.70;;;;;;5107103;28;20036;-63
2022/03/23 08:08:42;;;;;;;27.95;17.73;;;10.70;53.20;;;;;;5110455;28;20030;-61
2022/03/23 08:11:07;;;;;;;22.80;16.73;;;10.80;53.00;;;;;;5110328;28;20034;-62
2022/03/23 08:13:34;;;;;;;26.02;17.83;;;10.80;52.70;;;;;;5109347;28;20032;-59
2022/03/23 08:16:00;;;;;;;24.13;16.90;;;10.90;52.60;;;;;;5104861;28;20519;-59
2022/03/23 08:18:27;;;;;;;24.75;17.05;;;11.00;52.60;;;;;;5111356;27;20035;-59
2022/03/23 08:20:53;;;;;;;22.80;17.23;;;11.10;52.40;;;;;;5111339;28;20028;-60
2022/03/23 08:23:19;;;;;;;23.75;17.00;;;11.10;52.20;;;;;;5110753;28;20012;-59
2022/03/23 08:25:45;;;;;;;28.45;17.25;;;11.20;52.10;;;;;;5111924;28;20080;-60
2022/03/23 08:28:14;;;;;;;25.08;17.77;;;11.30;51.90;;;;;;5111213;28;20016;-62
2022/03/23 08:30:41;;;;;;;23.83;17.05;;;11.40;51.70;;;;;;5104251;28;20043;-62
2022/03/23 08:33:07;;;;;;;25.02;17.33;;;11.50;51.90;;;;;;5109864;28;20032;-61
2022/03/23 08:35:34;;;;;;;23.50;17.27;;;11.50;51.60;;;;;;5091448;28;20054;-62
2022/03/23 08:37:59;;;;;;;24.05;18.10;;;11.60;51.70;;;;;;5109979;28;20028;-61
2022/03/23 08:40:26;;;;;;;26.58;16.85;;;11.70;51.60;;;;;;5109793;28;20034;-62
2022/03/23 08:42:52;;;;;;;25.48;17.33;;;11.80;51.30;;;;;;5110410;28;20481;-62
2022/03/23 08:45:18;;;;;;;25.27;18.30;;;11.80;51.20;;;;;;5109822;28;20118;-61
2022/03/23 08:47:44;;;;;;;23.10;18.15;;;11.90;51.20;;;;;;5110650;28;20154;-59
2022/03/23 08:50:12;;;;;;;24.85;18.67;;;11.90;51.10;;;;;;5109234;28;20038;-60
2022/03/23 08:52:39;;;;;;;28.25;20.42;;;12.00;51.10;;;;;;5111082;28;20049;-59
2022/03/23 08:55:09;;;;;;;26.35;19.48;;;12.00;50.40;;;;;;5110292;28;20098;-59
2022/03/23 08:57:36;;;;;;;25.85;18.02;;;12.10;50.50;;;;;;5087360;28;20386;-59
2022/03/23 09:00:05;;;;;;;27.85;18.95;;;12.20;50.60;;;;;;5095803;28;20097;-59
2022/03/23 09:02:31;;;;;;;28.90;19.88;;;12.30;50.20;;;;;;5087973;28;20352;-59
2022/03/23 09:04:57;;;;;;;27.85;19.23;;;12.40;50.00;;;;;;5101651;28;20134;-59
2022/03/23 09:07:23;;;;;;;24.40;18.80;;;12.40;49.70;;;;;;5104686;28;20102;-60
2022/03/23 09:09:48;;;;;;;28.17;20.42;;;12.50;49.80;;;;;;5107444;28;20032;-63
2022/03/23 09:12:14;;;;;;;25.92;19.05;;;12.60;49.50;;;;;;5100805;28;20071;-63
2022/03/23 09:14:40;;;;;;;25.42;20.13;;;12.70;49.60;;;;;;5098584;28;20024;-62
2022/03/23 09:17:06;;;;;;;28.60;18.58;;;12.70;49.80;;;;;;5098642;28;20537;-62
2022/03/23 09:19:33;;;;;;;30.70;19.40;;;12.80;49.80;;;;;;5098814;28;20038;-61
2022/03/23 09:21:59;;;;;;;27.00;18.33;;;12.90;49.90;;;;;;5091512;28;20106;-62
2022/03/23 09:24:27;;;;;;;24.88;18.27;;;13.00;50.00;;;;;;5090646;28;20438;-62
2022/03/23 09:26:54;;;;;;;23.30;17.67;;;13.20;49.80;;;;;;5110204;28;20107;-62
2022/03/23 09:29:20;;;;;;;25.17;18.50;;;13.20;49.50;;;;;;5109922;28;20036;-62
2022/03/23 09:31:46;;;;;;;24.90;18.25;;;13.30;49.10;;;;;;5103673;28;20525;-59
2022/03/23 09:34:11;;;;;;;23.25;18.40;;;13.40;49.20;;;;;;5101535;28;20039;-60
2022/03/23 09:39:21;;;;;;;24.92;18.25;;;13.60;48.90;;;;;;5109845;28;20046;-60
2022/03/23 09:41:48;;;;;;;24.50;18.77;;;13.70;48.80;;;;;;5101400;28;20433;-59
2022/03/23 09:44:14;;;;;;;24.33;19.05;;;13.80;48.70;;;;;;5092060;28;20051;-59
2022/03/23 09:46:42;;;;;;;28.65;19.98;;;13.90;48.70;;;;;;5097957;28;20110;-62
2022/03/23 09:49:08;;;;;;;27.60;19.45;;;14.00;48.00;;;;;;5090739;28;20039;-62
2022/03/23 09:51:36;;;;;;;28.52;21.33;;;14.20;48.10;;;;;;5090968;28;20036;-62
2022/03/23 09:54:03;;;;;;;23.63;18.05;;;14.30;47.90;;;;;;5108869;28;20045;-62
2022/03/23 09:56:29;;;;;;;27.00;20.15;;;14.50;47.70;;;;;;5109455;28;20370;-62
2022/03/23 09:58:55;;;;;;;26.13;20.35;;;14.60;47.10;;;;;;5109091;28;20045;-62
2022/03/23 10:01:33;;;;;;;26.27;20.27;;;14.70;47.10;;;;;;5108549;28;20111;-63
2022/03/23 10:04:06;;;;;;;22.35;17.77;;;14.80;47.10;;;;;;5109210;28;20066;-62
2022/03/23 10:06:50;;;;;;;22.95;17.95;;;14.90;46.10;;;;;;5108186;28;20028;-62
2022/03/23 10:09:25;;;;;;;25.35;18.73;;;15.10;46.00;;;;;;5093967;28;20063;-61
2022/03/23 10:12:28;;;;;;;25.30;19.13;;;15.30;45.30;;;;;;5113376;28;20385;-61
2022/03/23 10:15:13;;;;;;;;;;;15.40;44.60;;;;;;5113954;28;20020;-62
2022/03/23 10:18:15;;;;;;;26.25;19.08;;;15.50;43.60;;;;;;5113046;28;19903;-61
2022/03/23 10:20:41;;;;;;;;;;;15.60;43.90;;;;;;5113378;28;20024;-62
2022/03/23 10:23:07;;;;;;;27.77;20.65;;;15.80;43.90;;;;;;5111851;28;19931;-62
2022/03/23 10:25:32;;;;;;;27.70;20.52;;;15.80;43.00;;;;;;5112812;28;20650;-61
2022/03/23 10:27:58;;;;;;;26.90;20.80;;;16.00;42.70;;;;;;5112983;28;20106;-62
2022/03/23 10:30:35;;;;;;;24.00;19.45;;;16.10;42.10;;;;;;5112173;28;20027;-62
2022/03/23 10:33:02;;;;;;;22.52;17.58;;;16.20;41.70;;;;;;5112997;28;20063;-62
2022/03/23 10:35:40;;;;;;;22.67;18.33;;;16.40;42.00;;;;;;5113110;28;20418;-59
2022/03/23 10:38:16;;;;;;;20.30;17.58;;;16.40;41.40;;;;;;5112598;28;20027;-61
2022/03/23 10:40:44;;;;;;;26.15;18.60;;;16.50;40.90;;;;;;5111294;28;20020;-59
2022/03/23 10:43:12;;;;;;;23.00;17.65;;;16.60;40.60;;;;;;5109997;28;20494;-62
2022/03/23 10:45:38;;;;;;;24.73;17.83;;;16.70;40.00;;;;;;5101552;28;20036;-62
2022/03/23 10:48:14;;;;;;;21.10;16.73;;;16.90;39.50;;;;;;5112265;28;20055;-63
2022/03/23 10:50:57;;;;;;;22.15;18.10;;;17.00;39.20;;;;;;5112384;28;20031;-62
2022/03/23 10:53:41;;;;;;;22.17;18.23;;;17.10;38.70;;;;;;5111750;28;20467;-62
2022/03/23 10:56:08;;;;;;;24.25;17.98;;;17.20;38.40;;;;;;5112353;28;20086;-62
2022/03/23 10:58:35;;;;;;;25.90;18.42;;;17.30;38.60;;;;;;5111640;28;20024;-59
2022/03/23 11:01:07;;;;;;;24.55;17.95;;;17.30;38.80;;;;;;5112306;28;20047;-59
2022/03/23 11:03:48;;;;;;;23.85;19.13;;;17.40;39.30;;;;;;5111535;28;20043;-62
2022/03/23 11:06:16;;;;;;;25.30;19.65;;;17.60;39.20;;;;;;5112380;28;20024;-62
2022/03/23 11:08:45;;;;;;;26.13;19.73;;;17.70;39.00;;;;;;5111886;28;20470;-62
2022/03/23 11:16:49;;;;;;;21.95;18.13;;;18.00;38.60;;;;;;5112739;28;20031;-60
2022/03/23 11:19:19;;;;;;;23.92;19.75;;;18.10;38.30;;;;;;5092927;28;20023;-59
2022/03/23 11:22:03;;;;;;;25.92;19.02;;;18.20;38.40;;;;;;5111702;28;20023;-59
2022/03/23 11:24:34;;;;;;;24.23;18.77;;;18.30;38.10;;;;;;5093083;28;20616;-62
2022/03/23 11:27:00;;;;;;;24.38;19.35;;;18.40;37.50;;;;;;5112089;28;20050;-62
2022/03/23 11:29:27;;;;;;;23.98;19.42;;;18.50;37.20;;;;;;5087295;28;20024;-61
2022/03/23 11:31:53;;;;;;;27.17;20.98;;;18.60;37.40;;;;;;5102648;28;20067;-62
2022/03/23 11:34:22;;;;;;;25.83;20.65;;;18.70;37.20;;;;;;5109832;28;20031;-62
2022/03/23 11:36:51;;;;;;;25.85;18.80;;;18.70;37.10;;;;;;5093335;28;20016;-59
2022/03/23 11:39:18;;;;;;;25.08;20.23;;;18.90;37.00;;;;;;5111276;28;20489;-59
2022/03/23 11:41:44;;;;;;;20.63;17.00;;;19.00;36.40;;;;;;5111206;28;20071;-60
2022/03/23 11:44:21;;;;;;;26.92;19.80;;;19.10;36.90;;;;;;5111159;28;20413;-59
2022/03/23 11:46:48;;;;;;;23.73;17.92;;;19.30;36.80;;;;;;5111697;28;20478;-60
2022/03/23 11:49:41;;;;;;;22.67;16.58;;;19.40;35.60;;;;;;5085681;28;20114;-59
2022/03/23 11:52:23;;;;;;;18.40;13.55;;;19.50;35.30;;;;;;5111319;28;20027;-62
2022/03/23 11:58:01;;;;;;;23.65;18.55;;;19.80;34.30;;;;;;5092610;28;20046;-60
2022/03/23 12:00:29;;;;;;;20.92;15.63;;;19.70;33.20;;;;;;5092489;28;20031;-60
2022/03/23 12:02:56;;;;;;;20.15;14.98;;;19.70;33.20;;;;;;5085601;28;20130;-60
2022/03/23 12:05:32;;;;;;;18.02;14.48;;;19.80;32.50;;;;;;5104550;28;20031;-60
2022/03/23 12:07:58;;;;;;;19.27;14.07;;;19.80;32.80;;;;;;5098412;27;20028;-60
2022/03/23 12:10:31;;;;;;;20.00;14.00;;;19.90;31.30;;;;;;5109033;28;20023;-59
2022/03/23 12:12:57;;;;;;;20.90;15.85;;;20.10;31.70;;;;;;5108481;28;20039;-60
2022/03/23 12:15:27;;;;;;;19.75;13.20;;;20.20;31.10;;;;;;5109303;28;20012;-60
2022/03/23 17:29:46;;;;;;;11.27;8.10;;;22.00;31.70;;;;;;5018504;27;2024340;-59
2022/03/23 17:32:12;;;;;;;11.48;8.75;;;21.40;32.10;;;;;;5058708;28;20035;-59
2022/03/23 17:34:38;;;;;;;10.57;7.78;;;21.30;33.10;;;;;;5044777;28;20438;-59
2022/03/23 17:37:05;;;;;;;14.40;8.45;;;21.30;34.30;;;;;;5072394;28;20442;-60
2022/03/23 17:39:31;;;;;;;10.00;8.43;;;21.30;34.20;;;;;;5045709;28;20052;-59
2022/03/23 17:42:02;;;;;;;10.70;7.68;;;21.30;34.60;;;;;;5055374;28;20480;-60
2022/03/23 17:44:31;;;;;;;12.37;8.03;;;21.30;35.00;;;;;;5077281;28;20484;-60
2022/03/23 17:46:58;;;;;;;11.13;7.82;;;21.20;35.30;;;;;;5076431;28;20387;-63
2022/03/23 17:49:24;;;;;;;10.30;7.95;;;21.20;36.30;;;;;;5078311;28;20024;-59
2022/03/23 17:51:50;;;;;;;12.13;8.98;;;21.20;36.50;;;;;;5071290;28;20086;-59
2022/03/23 17:54:15;;;;;;;13.15;9.13;;;21.10;37.00;;;;;;5079456;28;20024;-59
2022/03/23 17:56:42;;;;;;;10.98;8.20;;;21.00;37.50;;;;;;5071758;28;20064;-63
2022/03/23 17:59:08;;;;;;;11.20;8.02;;;21.00;36.40;;;;;;5072062;28;20036;-63
2022/03/23 18:01:34;;;;;;;14.85;8.93;;;20.90;36.20;;;;;;5075203;28;20106;-63
2022/03/23 18:04:01;;;;;;;11.18;8.00;;;20.90;36.40;;;;;;5069755;28;20036;-62
2022/03/23 18:06:28;;;;;;;11.25;8.00;;;20.80;35.50;;;;;;5077216;28;20108;-63
2022/03/23 18:08:55;;;;;;;12.40;8.23;;;20.70;35.50;;;;;;5064589;28;20480;-63
2022/03/23 18:11:22;;;;;;;12.15;8.10;;;20.60;35.30;;;;;;5072513;28;20069;-68
2022/03/23 18:13:47;;;;;;;10.27;7.78;;;20.50;35.70;;;;;;5076554;28;20357;-63
2022/03/23 18:16:13;;;;;;;10.98;8.02;;;20.40;35.90;;;;;;5078587;28;20032;-63
2022/03/23 18:18:39;;;;;;;13.23;8.73;;;20.30;36.10;;;;;;5081513;28;20090;-63
2022/03/23 18:21:05;;;;;;;10.38;7.93;;;20.20;35.30;;;;;;5057497;28;20040;-63
2022/03/23 18:23:32;;;;;;;11.43;9.23;;;20.10;36.00;;;;;;5078746;28;20052;-64
2022/03/23 18:25:59;;;;;;;13.80;9.73;;;20.00;36.60;;;;;;5075594;28;20395;-64